Time;durP1;ratioP1;P1;durP2;ratioP2;P2;SDS_P1;SDS_P2;PMS_P1;PMS_P2;Temp;Humidity;BMP_temperature;BMP_pressure;BME280_temperature;BME280_humidity;BME280_pressure;Samples;Min_cycle;Max_cycle;Signal;HPM_P1;HPM_P2
2023/07/18 00:01:04;;;;;;;3.13;1.85;;;17.40;99.90;;;;;;5055572;28;20173;-65
2023/07/18 00:03:32;;;;;;;2.97;1.92;;;17.40;99.90;;;;;;5053133;28;20198;-66
2023/07/18 00:05:58;;;;;;;3.22;1.73;;;17.40;99.90;;;;;;5073638;28;20180;-68
2023/07/18 00:08:23;;;;;;;3.53;2.45;;;17.40;99.90;;;;;;5058600;28;20196;-65
2023/07/18 00:10:49;;;;;;;4.50;2.15;;;17.30;99.90;;;;;;5047900;28;20178;-66
2023/07/18 00:13:17;;;;;;;4.68;2.25;;;17.30;99.90;;;;;;5068835;28;20314;-66
2023/07/18 00:15:58;;;;;;;3.03;1.92;;;17.30;99.90;;;;;;5058539;28;20169;-65
2023/07/18 00:18:24;;;;;;;3.45;1.88;;;17.30;99.90;;;;;;5055000;28;20173;-66
2023/07/18 00:20:50;;;;;;;3.42;1.90;;;17.30;99.90;;;;;;5070661;28;20226;-66
2023/07/18 00:23:15;;;;;;;2.65;1.90;;;17.20;99.90;;;;;;5041702;28;20251;-65
2023/07/18 00:25:43;;;;;;;2.75;1.75;;;17.20;99.90;;;;;;5056174;28;20189;-64
2023/07/18 00:28:09;;;;;;;2.33;1.77;;;17.20;99.90;;;;;;5053175;28;20235;-66
2023/07/18 00:30:40;;;;;;;2.35;1.67;;;17.20;99.90;;;;;;5061217;28;20287;-67
2023/07/18 00:33:06;;;;;;;1.75;1.55;;;17.20;99.90;;;;;;5055654;28;20227;-66
2023/07/18 00:35:31;;;;;;;2.53;1.60;;;17.10;99.90;;;;;;5045169;28;20324;-66
2023/07/18 00:38:00;;;;;;;4.63;2.20;;;17.10;99.90;;;;;;5059262;28;20194;-64
2023/07/18 00:40:26;;;;;;;2.15;1.77;;;17.10;99.90;;;;;;5061872;28;20344;-65
2023/07/18 00:42:51;;;;;;;2.33;1.90;;;17.10;99.90;;;;;;5041911;28;20249;-65
2023/07/18 00:45:17;;;;;;;3.72;1.70;;;17.10;99.90;;;;;;5049998;28;20220;-66
2023/07/18 00:47:44;;;;;;;3.70;1.92;;;17.00;99.90;;;;;;5054906;28;20203;-64
2023/07/18 00:50:16;;;;;;;2.67;1.77;;;17.00;99.90;;;;;;5054328;28;20192;-66
2023/07/18 00:52:52;;;;;;;2.10;1.58;;;17.00;99.90;;;;;;5035382;28;20221;-65
2023/07/18 00:55:19;;;;;;;4.30;2.10;;;17.00;99.90;;;;;;5036640;28;20181;-68
2023/07/18 00:57:46;;;;;;;3.55;2.00;;;17.00;99.90;;;;;;5055628;28;20176;-65
2023/07/18 01:00:13;;;;;;;2.22;1.77;;;17.00;99.90;;;;;;5058374;28;20200;-64
2023/07/18 01:02:42;;;;;;;2.33;1.70;;;17.00;99.90;;;;;;5054085;28;20218;-64
2023/07/18 01:05:16;;;;;;;4.15;1.83;;;17.00;99.90;;;;;;5040462;28;20182;-66
2023/07/18 01:07:42;;;;;;;2.92;1.90;;;17.00;99.90;;;;;;5053765;28;20181;-66
2023/07/18 01:10:25;;;;;;;4.93;2.15;;;17.00;99.90;;;;;;5051218;28;20173;-65
2023/07/18 01:12:56;;;;;;;3.83;2.00;;;17.00;99.90;;;;;;5048304;28;20300;-65
2023/07/18 01:15:22;;;;;;;2.90;1.90;;;17.00;99.90;;;;;;5051835;28;20181;-65
2023/07/18 01:17:49;;;;;;;4.90;1.92;;;17.00;99.90;;;;;;5050059;28;20174;-65
2023/07/18 01:20:28;;;;;;;5.25;2.10;;;16.90;99.90;;;;;;5055549;28;20189;-65
2023/07/18 01:22:59;;;;;;;2.60;1.60;;;16.90;99.90;;;;;;5070402;28;20195;-65
2023/07/18 01:25:30;;;;;;;3.13;1.98;;;16.90;99.90;;;;;;5055978;28;20236;-65
2023/07/18 01:27:56;;;;;;;2.72;1.90;;;16.80;99.90;;;;;;5054589;28;20194;-66
2023/07/18 01:30:26;;;;;;;3.88;1.83;;;16.80;99.90;;;;;;5061172;28;20173;-65
2023/07/18 01:32:52;;;;;;;3.70;1.83;;;16.80;99.90;;;;;;5054935;28;20201;-66
2023/07/18 01:35:23;;;;;;;2.55;1.80;;;16.70;99.90;;;;;;5046277;28;20188;-66
2023/07/18 01:37:49;;;;;;;3.63;1.85;;;16.70;99.90;;;;;;5051905;28;20205;-65
2023/07/18 01:40:20;;;;;;;3.08;1.80;;;16.70;99.90;;;;;;5049545;28;20272;-65
2023/07/18 01:42:51;;;;;;;2.53;1.85;;;16.70;99.90;;;;;;5074617;28;20259;-65
2023/07/18 01:45:22;;;;;;;2.78;2.00;;;16.70;99.90;;;;;;5051601;28;20181;-66
2023/07/18 01:47:49;;;;;;;2.03;1.55;;;16.60;99.90;;;;;;5047314;28;20197;-65
2023/07/18 01:50:14;;;;;;;4.35;2.00;;;16.60;99.90;;;;;;5054247;28;20204;-65
2023/07/18 01:52:43;;;;;;;2.20;1.73;;;16.60;99.90;;;;;;5062110;28;20205;-65
2023/07/18 01:55:15;;;;;;;2.58;1.92;;;16.60;99.90;;;;;;5046762;28;20197;-65
2023/07/18 01:57:40;;;;;;;2.83;1.95;;;16.60;99.90;;;;;;5058178;28;20193;-65
2023/07/18 02:00:11;;;;;;;2.50;1.73;;;16.60;99.90;;;;;;5046195;28;20178;-65
2023/07/18 02:02:42;;;;;;;2.35;1.80;;;16.50;99.90;;;;;;5044495;28;20267;-65
2023/07/18 02:05:10;;;;;;;2.67;2.00;;;16.50;99.90;;;;;;5057065;28;20187;-65
2023/07/18 02:07:35;;;;;;;2.70;1.83;;;16.50;99.90;;;;;;5053123;28;20185;-66
2023/07/18 02:10:02;;;;;;;2.38;1.60;;;16.50;99.90;;;;;;5058157;28;20231;-65
2023/07/18 02:12:32;;;;;;;3.15;2.00;;;16.40;99.90;;;;;;5044720;28;20197;-65
2023/07/18 02:15:01;;;;;;;2.17;1.70;;;16.40;99.90;;;;;;5055070;28;20177;-65
2023/07/18 02:17:27;;;;;;;2.85;2.15;;;16.40;99.90;;;;;;5053809;28;20180;-65
2023/07/18 02:19:52;;;;;;;1.77;1.60;;;16.40;99.90;;;;;;5054998;28;20178;-65
2023/07/18 02:22:19;;;;;;;4.45;2.05;;;16.40;99.90;;;;;;5043010;28;20235;-65
2023/07/18 02:24:45;;;;;;;3.30;1.92;;;16.40;99.90;;;;;;5051855;28;20192;-65
2023/07/18 02:27:10;;;;;;;4.00;1.80;;;16.40;99.90;;;;;;5058013;28;20169;-66
2023/07/18 02:29:38;;;;;;;2.58;1.60;;;16.40;99.90;;;;;;5053629;28;20217;-65
2023/07/18 02:32:09;;;;;;;2.30;1.85;;;16.40;99.90;;;;;;5052124;28;20192;-65
2023/07/18 02:34:34;;;;;;;4.18;1.75;;;16.30;99.90;;;;;;5063484;28;20448;-65
2023/07/18 02:37:02;;;;;;;3.13;2.05;;;16.30;99.90;;;;;;5056945;28;20200;-65
2023/07/18 02:39:32;;;;;;;2.60;1.95;;;16.30;99.90;;;;;;5051934;28;20242;-65
2023/07/18 02:41:58;;;;;;;2.85;1.70;;;16.30;99.90;;;;;;5052080;28;20188;-65
2023/07/18 02:44:24;;;;;;;3.58;1.85;;;16.20;99.90;;;;;;5046241;28;20201;-65
2023/07/18 02:46:54;;;;;;;2.88;1.77;;;16.20;99.90;;;;;;5053724;28;20181;-65
2023/07/18 02:49:19;;;;;;;2.95;1.92;;;16.20;99.90;;;;;;5047904;28;20181;-65
2023/07/18 02:51:45;;;;;;;3.83;1.80;;;16.20;99.90;;;;;;5051458;28;20292;-64
2023/07/18 02:54:13;;;;;;;3.90;1.80;;;16.20;99.90;;;;;;5080441;28;20169;-66
2023/07/18 02:56:41;;;;;;;1.90;1.70;;;16.10;99.90;;;;;;5062620;28;20195;-65
2023/07/18 02:59:06;;;;;;;3.17;2.20;;;16.20;99.90;;;;;;5057678;28;20201;-64
2023/07/18 03:01:34;;;;;;;2.25;1.90;;;16.20;99.90;;;;;;5050981;28;20192;-65
2023/07/18 03:04:03;;;;;;;2.63;1.90;;;16.20;99.90;;;;;;5044833;28;20178;-65
2023/07/18 03:06:31;;;;;;;2.55;1.92;;;16.20;99.90;;;;;;5052289;28;20232;-65
2023/07/18 03:08:57;;;;;;;3.50;2.10;;;16.20;99.90;;;;;;5053720;28;20423;-65
2023/07/18 03:11:25;;;;;;;3.22;2.20;;;16.10;99.90;;;;;;5048460;28;20177;-65
2023/07/18 03:13:51;;;;;;;2.22;1.85;;;16.10;99.90;;;;;;5052011;28;20224;-65
2023/07/18 03:16:16;;;;;;;2.47;1.88;;;16.10;99.90;;;;;;5065337;28;20269;-65
2023/07/18 03:18:42;;;;;;;4.38;2.20;;;16.10;99.90;;;;;;5045147;28;20237;-65
2023/07/18 03:21:10;;;;;;;3.15;2.05;;;16.10;99.90;;;;;;5077598;28;20217;-65
2023/07/18 03:23:36;;;;;;;2.92;1.90;;;16.10;99.90;;;;;;5072347;28;20188;-65
2023/07/18 03:26:04;;;;;;;3.80;1.90;;;16.10;99.90;;;;;;5045750;28;20197;-65
2023/07/18 03:28:31;;;;;;;3.30;1.88;;;16.00;99.90;;;;;;5045450;28;20289;-65
2023/07/18 03:30:57;;;;;;;3.00;1.95;;;16.00;99.90;;;;;;5037080;28;20182;-65
2023/07/18 03:33:23;;;;;;;2.65;2.00;;;16.00;99.90;;;;;;5047954;28;20303;-66
2023/07/18 03:35:48;;;;;;;4.25;1.95;;;15.90;99.90;;;;;;5060932;28;20200;-66
2023/07/18 03:38:14;;;;;;;2.78;2.00;;;15.90;99.90;;;;;;5062669;28;20177;-65
2023/07/18 03:40:39;;;;;;;3.47;2.00;;;15.90;99.90;;;;;;5057191;28;20207;-65
2023/07/18 03:43:05;;;;;;;4.07;1.92;;;15.90;99.90;;;;;;5060937;28;20207;-66
2023/07/18 03:45:33;;;;;;;2.50;1.73;;;15.90;99.90;;;;;;5047418;28;20201;-65
2023/07/18 03:48:01;;;;;;;3.10;2.00;;;15.90;99.90;;;;;;5061075;28;20177;-65
2023/07/18 03:50:26;;;;;;;4.20;2.10;;;15.90;99.90;;;;;;5093922;28;20184;-65
2023/07/18 03:52:55;;;;;;;3.30;1.75;;;15.90;99.90;;;;;;5055839;28;20201;-65
2023/07/18 03:55:20;;;;;;;3.60;2.00;;;15.90;99.90;;;;;;5056924;28;20196;-65
2023/07/18 03:57:46;;;;;;;3.08;2.05;;;15.90;99.90;;;;;;5056060;28;20177;-65
2023/07/18 04:00:17;;;;;;;2.95;2.08;;;15.90;99.90;;;;;;5050256;28;20231;-65
2023/07/18 04:02:45;;;;;;;3.47;2.22;;;15.90;99.90;;;;;;5055711;28;20201;-64
2023/07/18 04:05:11;;;;;;;2.90;2.22;;;15.90;99.90;;;;;;5052056;28;20191;-65
2023/07/18 04:07:39;;;;;;;2.95;1.95;;;15.90;99.90;;;;;;5053970;28;20174;-65
2023/07/18 04:10:07;;;;;;;3.10;2.10;;;15.90;99.90;;;;;;5055649;28;20173;-65
2023/07/18 04:12:33;;;;;;;3.30;2.00;;;15.90;99.90;;;;;;5045339;28;20205;-65
2023/07/18 04:14:58;;;;;;;3.45;1.85;;;16.00;99.90;;;;;;5053588;28;20178;-66
2023/07/18 04:17:24;;;;;;;4.80;2.10;;;16.00;99.90;;;;;;5054020;28;20185;-65
2023/07/18 04:19:56;;;;;;;5.35;2.05;;;16.00;99.90;;;;;;5052682;28;20278;-66
2023/07/18 04:22:24;;;;;;;3.08;2.20;;;16.00;99.90;;;;;;5054881;28;20206;-65
2023/07/18 04:24:52;;;;;;;4.50;1.90;;;16.00;99.90;;;;;;5054791;28;20224;-66
2023/07/18 04:27:18;;;;;;;3.75;1.95;;;16.00;99.90;;;;;;5053878;28;20177;-68
2023/07/18 04:29:45;;;;;;;4.75;2.28;;;16.00;99.90;;;;;;5063020;28;20169;-67
2023/07/18 04:32:11;;;;;;;3.38;2.17;;;16.00;99.90;;;;;;5048851;28;20198;-67
2023/07/18 04:34:37;;;;;;;2.60;2.08;;;16.00;99.90;;;;;;5051141;28;20224;-66
2023/07/18 04:37:03;;;;;;;3.05;1.75;;;16.00;99.90;;;;;;5055176;28;20177;-66
2023/07/18 04:39:30;;;;;;;3.75;2.10;;;16.10;99.90;;;;;;5075003;28;20179;-66
2023/07/18 04:41:56;;;;;;;3.00;2.10;;;16.10;99.90;;;;;;5048226;28;20188;-66
2023/07/18 04:44:24;;;;;;;2.50;1.92;;;16.10;99.90;;;;;;5077179;28;20170;-66
2023/07/18 04:46:50;;;;;;;2.60;2.00;;;16.20;99.90;;;;;;5052285;28;20197;-66
2023/07/18 04:49:16;;;;;;;2.72;1.85;;;16.20;99.90;;;;;;5048906;28;20180;-66
2023/07/18 04:51:44;;;;;;;3.55;2.28;;;16.20;99.90;;;;;;5055977;28;20212;-66
2023/07/18 04:54:11;;;;;;;2.50;1.95;;;16.30;99.90;;;;;;5059206;28;20190;-66
2023/07/18 04:56:38;;;;;;;2.30;1.70;;;16.30;99.90;;;;;;5052211;28;20217;-66
2023/07/18 04:59:04;;;;;;;2.63;2.03;;;16.30;99.90;;;;;;5048203;28;20185;-67
2023/07/18 05:01:29;;;;;;;4.43;2.45;;;16.40;99.90;;;;;;5053060;28;20209;-68
2023/07/18 05:03:58;;;;;;;3.70;2.17;;;16.40;99.90;;;;;;5064718;28;20189;-67
2023/07/18 05:06:26;;;;;;;3.95;2.17;;;16.50;99.90;;;;;;5041735;28;20202;-68
2023/07/18 05:08:53;;;;;;;3.53;1.92;;;16.50;99.90;;;;;;5045867;28;20201;-66
2023/07/18 05:11:19;;;;;;;4.00;2.08;;;16.60;99.90;;;;;;5070951;28;20176;-67
2023/07/18 05:13:49;;;;;;;2.60;2.10;;;16.60;99.90;;;;;;5055402;28;20281;-67
2023/07/18 05:16:17;;;;;;;2.97;2.20;;;16.70;99.90;;;;;;5053614;28;20231;-68
2023/07/18 05:18:45;;;;;;;4.20;2.38;;;16.80;99.90;;;;;;5053262;28;20209;-67
2023/07/18 05:21:11;;;;;;;2.50;2.10;;;16.80;99.90;;;;;;5054069;28;20241;-67
2023/07/18 05:23:37;;;;;;;3.40;2.17;;;16.90;99.90;;;;;;5053769;28;20205;-67
2023/07/18 05:26:07;;;;;;;3.20;1.95;;;17.00;99.90;;;;;;5045503;28;20336;-67
2023/07/18 05:28:33;;;;;;;3.80;2.13;;;17.10;99.90;;;;;;5055108;28;20181;-67
2023/07/18 05:31:05;;;;;;;4.25;2.30;;;17.10;99.90;;;;;;5049559;28;20209;-67
2023/07/18 05:33:33;;;;;;;2.80;1.90;;;17.20;99.90;;;;;;5084978;28;20205;-68
2023/07/18 05:35:59;;;;;;;3.78;2.03;;;17.20;99.90;;;;;;5054478;28;20207;-67
2023/07/18 05:38:25;;;;;;;3.15;2.08;;;17.30;99.90;;;;;;5044521;28;20201;-67
2023/07/18 05:40:50;;;;;;;4.63;2.13;;;17.30;99.90;;;;;;5054488;28;20260;-67
2023/07/18 05:43:18;;;;;;;2.22;1.90;;;17.40;99.90;;;;;;5086044;28;20213;-68
2023/07/18 05:45:44;;;;;;;3.38;2.17;;;17.40;99.90;;;;;;5054832;28;20197;-67
2023/07/18 05:48:09;;;;;;;3.47;2.20;;;17.50;99.90;;;;;;5056908;28;20199;-67
2023/07/18 05:50:35;;;;;;;3.40;2.13;;;17.60;99.90;;;;;;5047223;28;20178;-68
2023/07/18 05:53:03;;;;;;;4.95;2.30;;;17.60;99.90;;;;;;5046920;28;20209;-67
2023/07/18 05:55:32;;;;;;;3.70;2.40;;;17.60;99.90;;;;;;5056572;28;20173;-66
2023/07/18 05:58:00;;;;;;;3.53;2.10;;;17.70;99.90;;;;;;5055048;28;20177;-67
2023/07/18 06:00:25;;;;;;;3.08;2.08;;;17.80;99.90;;;;;;5051412;28;20193;-66
2023/07/18 06:02:51;;;;;;;3.88;2.15;;;17.80;99.90;;;;;;5052397;28;20169;-67
2023/07/18 06:05:16;;;;;;;3.47;2.00;;;17.90;99.90;;;;;;5047510;28;20391;-66
2023/07/18 06:07:42;;;;;;;3.80;2.75;;;18.00;99.90;;;;;;5046113;28;20216;-66
2023/07/18 06:10:11;;;;;;;2.75;2.03;;;18.10;99.90;;;;;;5053221;28;20173;-67
2023/07/18 06:12:37;;;;;;;3.75;1.90;;;18.10;99.90;;;;;;5053480;28;20201;-66
2023/07/18 06:15:05;;;;;;;4.22;2.28;;;18.20;99.90;;;;;;5053616;28;20208;-67
2023/07/18 06:17:35;;;;;;;3.58;2.20;;;18.30;99.90;;;;;;5051715;28;20189;-67
2023/07/18 06:20:06;;;;;;;4.57;2.83;;;18.40;99.90;;;;;;5046783;28;20192;-66
2023/07/18 06:22:31;;;;;;;6.18;2.60;;;18.50;99.90;;;;;;5040699;28;20205;-66
2023/07/18 06:24:57;;;;;;;2.63;2.30;;;18.70;99.90;;;;;;5056115;28;20173;-67
2023/07/18 06:27:26;;;;;;;4.90;2.65;;;18.80;99.90;;;;;;5054337;28;20178;-65
2023/07/18 06:29:52;;;;;;;4.57;2.47;;;18.90;99.90;;;;;;5057583;28;20187;-66
2023/07/18 06:32:17;;;;;;;7.50;2.63;;;19.00;99.90;;;;;;5054136;28;20201;-66
2023/07/18 06:34:43;;;;;;;4.22;2.45;;;19.10;99.90;;;;;;5058930;28;20261;-65
2023/07/18 06:37:09;;;;;;;3.25;2.13;;;19.20;99.90;;;;;;5055928;28;20227;-65
2023/07/18 06:39:39;;;;;;;3.65;2.40;;;19.30;99.90;;;;;;5055573;28;20173;-65
2023/07/18 06:42:05;;;;;;;3.17;2.50;;;19.30;99.90;;;;;;5060190;28;20189;-66
2023/07/18 06:44:31;;;;;;;4.30;2.33;;;19.50;99.90;;;;;;5055876;28;20180;-66
2023/07/18 06:46:59;;;;;;;3.13;2.25;;;19.60;99.90;;;;;;5054109;28;20182;-66
2023/07/18 06:49:28;;;;;;;3.30;2.40;;;19.70;99.90;;;;;;5053643;28;20193;-66
2023/07/18 06:51:58;;;;;;;4.30;2.30;;;19.80;99.90;;;;;;5049932;28;20250;-66
2023/07/18 06:54:24;;;;;;;2.90;2.22;;;19.80;99.90;;;;;;5050740;28;20178;-65
2023/07/18 06:56:49;;;;;;;4.47;2.53;;;19.90;99.90;;;;;;5049216;28;20169;-66
2023/07/18 06:59:17;;;;;;;3.72;2.10;;;20.00;99.90;;;;;;5052060;28;20189;-66
2023/07/18 07:01:43;;;;;;;3.25;2.20;;;20.10;99.90;;;;;;5070927;28;20190;-65
2023/07/18 07:04:09;;;;;;;3.55;2.58;;;20.20;99.90;;;;;;5040025;28;20258;-66
2023/07/18 07:06:41;;;;;;;2.50;2.05;;;20.30;99.90;;;;;;5074929;28;20216;-66
2023/07/18 07:09:12;;;;;;;4.70;2.30;;;20.50;99.90;;;;;;5059446;28;20205;-65
2023/07/18 07:11:43;;;;;;;3.42;2.15;;;20.60;99.90;;;;;;5071092;28;20234;-65
2023/07/18 07:14:09;;;;;;;4.15;2.28;;;20.60;99.90;;;;;;5051750;28;20177;-65
2023/07/18 07:16:37;;;;;;;3.50;2.00;;;20.70;99.90;;;;;;5048018;28;20202;-65
2023/07/18 07:19:02;;;;;;;4.25;2.95;;;20.80;99.90;;;;;;5045221;28;20173;-66
2023/07/18 07:21:28;;;;;;;2.63;2.10;;;20.80;99.90;;;;;;5052900;28;20230;-67
2023/07/18 07:23:56;;;;;;;2.50;2.00;;;20.90;99.90;;;;;;5049866;28;20395;-67
2023/07/18 07:26:22;;;;;;;3.10;2.30;;;21.00;99.90;;;;;;5046291;28;20169;-66
2023/07/18 07:28:48;;;;;;;4.78;2.15;;;21.10;99.90;;;;;;5052212;28;20173;-65
2023/07/18 07:31:14;;;;;;;2.60;1.95;;;21.20;99.90;;;;;;5051466;28;20196;-66
2023/07/18 07:33:41;;;;;;;4.22;2.00;;;21.30;99.90;;;;;;5057006;28;20283;-66
2023/07/18 07:36:09;;;;;;;2.25;1.70;;;21.30;99.90;;;;;;5083722;28;20194;-66
2023/07/18 07:38:35;;;;;;;4.78;2.00;;;21.40;99.90;;;;;;5049892;28;20174;-65
2023/07/18 07:41:01;;;;;;;2.78;2.05;;;21.50;99.90;;;;;;5082438;28;20221;-66
2023/07/18 07:43:27;;;;;;;3.30;2.30;;;21.60;99.90;;;;;;5050439;28;20212;-66
2023/07/18 07:45:54;;;;;;;2.83;2.00;;;21.70;99.90;;;;;;5039075;28;20255;-66
2023/07/18 07:48:21;;;;;;;2.75;2.20;;;21.70;99.90;;;;;;5051063;28;20184;-66
2023/07/18 07:50:48;;;;;;;3.42;2.30;;;21.70;99.90;;;;;;5049258;28;20208;-66
2023/07/18 07:53:14;;;;;;;3.17;2.10;;;21.80;99.90;;;;;;5053092;28;20243;-67
2023/07/18 07:55:40;;;;;;;3.72;2.08;;;21.80;99.90;;;;;;5052737;28;20196;-66
2023/07/18 07:58:10;;;;;;;2.70;2.00;;;21.90;99.90;;;;;;5051824;28;20242;-66
2023/07/18 08:00:36;;;;;;;2.53;1.98;;;22.00;99.90;;;;;;5059152;28;20205;-66
2023/07/18 08:03:01;;;;;;;4.85;2.47;;;22.00;99.90;;;;;;5042323;28;20208;-67
2023/07/18 08:05:29;;;;;;;4.22;2.50;;;22.00;99.90;;;;;;5056921;28;20204;-66
2023/07/18 08:07:55;;;;;;;3.05;2.22;;;22.10;99.90;;;;;;5070490;28;20176;-66
2023/07/18 08:10:21;;;;;;;3.88;2.50;;;22.10;99.90;;;;;;5060139;28;20185;-65
2023/07/18 08:12:49;;;;;;;2.55;1.83;;;22.20;99.90;;;;;;5056681;28;20200;-66
2023/07/18 08:15:17;;;;;;;2.53;1.88;;;22.30;99.90;;;;;;5057124;28;20245;-66
2023/07/18 08:17:45;;;;;;;3.45;2.00;;;22.20;99.90;;;;;;5056478;28;20165;-64
2023/07/18 08:20:12;;;;;;;3.58;2.20;;;22.30;99.90;;;;;;5055979;28;20208;-66
2023/07/18 08:22:40;;;;;;;2.20;2.00;;;22.40;99.90;;;;;;5064368;28;20181;-66
2023/07/18 08:25:06;;;;;;;2.92;2.42;;;22.50;99.90;;;;;;5056766;28;20197;-66
2023/07/18 08:27:31;;;;;;;3.22;2.10;;;22.50;99.90;;;;;;5065040;28;20219;-66
2023/07/18 08:29:57;;;;;;;2.85;1.95;;;22.60;99.90;;;;;;5056977;28;20205;-66
2023/07/18 08:32:25;;;;;;;2.45;1.83;;;22.60;99.90;;;;;;5049812;28;20256;-66
2023/07/18 08:34:53;;;;;;;2.42;1.80;;;22.70;99.90;;;;;;5053490;28;20170;-66
2023/07/18 08:37:18;;;;;;;5.78;2.15;;;22.70;99.90;;;;;;5044319;28;20202;-67
2023/07/18 08:39:44;;;;;;;3.72;2.20;;;22.80;99.90;;;;;;5061169;28;20170;-66
2023/07/18 08:42:13;;;;;;;2.30;1.73;;;22.80;99.90;;;;;;5051792;28;20177;-67
2023/07/18 08:44:40;;;;;;;4.32;1.95;;;22.90;99.90;;;;;;5036549;28;20184;-66
2023/07/18 08:47:09;;;;;;;3.42;2.00;;;23.00;99.90;;;;;;5036256;28;20291;-66
2023/07/18 08:49:38;;;;;;;3.00;1.90;;;23.00;99.90;;;;;;5043274;28;20277;-66
2023/07/18 08:52:06;;;;;;;3.63;1.83;;;23.00;99.90;;;;;;5055787;28;20240;-66
2023/07/18 08:54:35;;;;;;;4.55;1.85;;;23.10;99.90;;;;;;5052918;28;20185;-66
2023/07/18 08:57:02;;;;;;;4.18;2.55;;;23.20;99.90;;;;;;5053542;28;20284;-66
2023/07/18 08:59:28;;;;;;;3.58;2.15;;;23.40;99.90;;;;;;5056035;28;20260;-67
2023/07/18 09:01:56;;;;;;;2.45;1.98;;;23.50;99.90;;;;;;5055929;28;20224;-66
2023/07/18 09:04:22;;;;;;;2.50;1.70;;;23.60;99.90;;;;;;5062706;28;20433;-66
2023/07/18 09:06:58;;;;;;;2.92;1.67;;;23.70;99.90;;;;;;5086257;28;20169;-66
2023/07/18 09:09:28;;;;;;;2.85;1.80;;;23.70;99.90;;;;;;5058496;28;20232;-68
2023/07/18 09:11:54;;;;;;;2.53;1.77;;;23.80;99.90;;;;;;5058566;28;20242;-68
2023/07/18 09:14:28;;;;;;;3.10;1.98;;;23.90;99.90;;;;;;5086932;28;20196;-67
2023/07/18 09:16:59;;;;;;;2.30;1.70;;;24.00;99.90;;;;;;5058543;28;20264;-67
2023/07/18 09:19:40;;;;;;;3.08;1.83;;;24.10;99.90;;;;;;5044432;28;20201;-66
2023/07/18 09:22:13;;;;;;;2.95;1.98;;;24.20;99.90;;;;;;5067801;28;20283;-66
2023/07/18 09:24:40;;;;;;;3.40;1.70;;;24.30;99.90;;;;;;5057515;28;20236;-66
2023/07/18 09:27:17;;;;;;;4.15;1.55;;;24.40;99.90;;;;;;5055220;28;20184;-66
2023/07/18 09:29:48;;;;;;;1.90;1.60;;;24.40;99.90;;;;;;5062343;28;20169;-66
2023/07/18 09:32:23;;;;;;;2.22;1.65;;;24.50;99.90;;;;;;5043871;28;20208;-67
2023/07/18 09:35:04;;;;;;;2.20;1.50;;;24.60;99.90;;;;;;5048827;28;20200;-66
2023/07/18 09:37:45;;;;;;;1.95;1.45;;;24.70;99.90;;;;;;5039981;28;20180;-66
2023/07/18 09:40:15;;;;;;;2.83;1.77;;;24.80;99.90;;;;;;5048607;28;20177;-67
2023/07/18 09:42:46;;;;;;;2.67;1.95;;;24.90;99.90;;;;;;5050000;28;20178;-67
2023/07/18 09:45:14;;;;;;;3.60;1.98;;;25.10;99.90;;;;;;5070302;28;20276;-66
2023/07/18 09:47:43;;;;;;;2.42;1.77;;;25.20;99.90;;;;;;5053507;28;20209;-67
2023/07/18 09:50:14;;;;;;;2.63;1.63;;;25.30;99.90;;;;;;5056562;28;20173;-65
2023/07/18 09:52:41;;;;;;;2.22;1.50;;;25.40;99.90;;;;;;5059055;28;20292;-66
2023/07/18 09:55:09;;;;;;;2.72;1.70;;;25.50;99.90;;;;;;5053176;28;20177;-68
2023/07/18 09:57:42;;;;;;;2.38;1.77;;;25.60;99.90;;;;;;5055241;28;20173;-65
2023/07/18 10:00:11;;;;;;;2.30;1.70;;;25.80;99.90;;;;;;5052951;28;20270;-65
2023/07/18 10:02:39;;;;;;;2.63;2.17;;;25.80;99.90;;;;;;5051583;28;20237;-66
2023/07/18 10:05:05;;;;;;;2.70;2.05;;;25.80;99.90;;;;;;5051305;28;20189;-66
2023/07/18 10:07:33;;;;;;;2.50;1.58;;;25.80;99.90;;;;;;5078480;28;20209;-68
2023/07/18 10:10:03;;;;;;;4.78;1.60;;;25.80;99.90;;;;;;5050260;28;20295;-66
2023/07/18 10:12:35;;;;;;;2.42;1.85;;;25.80;99.90;;;;;;5053565;28;20279;-65
2023/07/18 10:15:03;;;;;;;2.13;1.60;;;25.80;99.90;;;;;;5085321;28;20317;-66
2023/07/18 10:17:35;;;;;;;2.58;1.80;;;25.80;99.90;;;;;;5050835;28;20169;-66
2023/07/18 10:20:06;;;;;;;4.53;2.95;;;25.80;99.90;;;;;;5057851;28;20221;-66
2023/07/18 10:22:32;;;;;;;7.90;3.10;;;25.90;99.90;;;;;;5052578;28;20186;-66
2023/07/18 10:25:11;;;;;;;3.22;2.80;;;25.90;99.90;;;;;;5050143;28;20277;-66
2023/07/18 10:27:43;;;;;;;2.63;2.22;;;26.00;99.90;;;;;;5082241;28;20433;-65
2023/07/18 10:30:11;;;;;;;3.47;2.00;;;26.10;99.90;;;;;;5053278;28;20172;-67
2023/07/18 10:32:38;;;;;;;5.07;2.90;;;26.20;99.90;;;;;;5051966;28;20292;-67
2023/07/18 10:35:15;;;;;;;8.85;3.40;;;26.30;99.90;;;;;;5052987;28;20189;-65
2023/07/18 10:37:52;;;;;;;4.53;2.42;;;26.30;99.90;;;;;;5053155;28;20197;-65
2023/07/18 10:40:40;;;;;;;3.28;1.85;;;26.30;99.90;;;;;;5074906;28;20327;-66
2023/07/18 10:43:16;;;;;;;1.88;1.70;;;26.40;99.90;;;;;;5085945;28;20328;-66
2023/07/18 10:45:45;;;;;;;3.58;2.17;;;26.30;99.90;;;;;;5052604;28;20161;-66
2023/07/18 10:48:19;;;;;;;4.07;3.05;;;26.30;99.90;;;;;;5042052;28;20188;-65
2023/07/18 10:50:48;;;;;;;4.82;2.78;;;26.30;99.90;;;;;;5084711;28;20439;-64
2023/07/18 10:53:20;;;;;;;5.40;3.00;;;26.20;99.90;;;;;;5085542;28;20205;-66
2023/07/18 10:55:48;;;;;;;3.25;2.30;;;26.20;99.90;;;;;;5051351;28;20165;-66
2023/07/18 10:58:18;;;;;;;2.67;2.10;;;26.10;99.90;;;;;;5086648;28;20172;-66
2023/07/18 11:00:45;;;;;;;3.10;2.05;;;26.10;99.90;;;;;;5059811;28;20261;-66
2023/07/18 11:03:27;;;;;;;2.70;2.00;;;26.10;99.90;;;;;;5053591;28;20208;-66
2023/07/18 11:05:53;;;;;;;3.50;1.80;;;26.20;99.90;;;;;;5045083;28;20318;-66
2023/07/18 11:08:26;;;;;;;2.22;1.75;;;26.20;99.90;;;;;;5066397;28;20269;-67
2023/07/18 11:11:03;;;;;;;2.30;1.70;;;26.40;99.90;;;;;;5042674;28;20246;-67
2023/07/18 11:13:36;;;;;;;3.10;1.45;;;26.60;99.90;;;;;;5040408;28;20349;-70
2023/07/18 11:16:06;;;;;;;2.53;1.70;;;26.90;99.90;;;;;;5046113;28;20273;-69
2023/07/18 11:18:36;;;;;;;2.40;1.50;;;27.20;99.90;;;;;;5048967;28;20185;-69
2023/07/18 11:21:08;;;;;;;2.20;1.60;;;27.40;99.90;;;;;;5041241;28;20180;-69
2023/07/18 11:23:36;;;;;;;2.35;1.77;;;27.50;99.90;;;;;;5040945;28;20169;-69
2023/07/18 11:26:10;;;;;;;4.00;3.40;;;27.60;99.90;;;;;;5079243;28;20182;-68
2023/07/18 11:28:37;;;;;;;3.72;2.85;;;27.80;99.90;;;;;;5048382;28;20537;-70
2023/07/18 11:31:02;;;;;;;3.13;2.30;;;27.90;99.90;;;;;;5084774;28;20174;-69
2023/07/18 11:33:31;;;;;;;2.40;1.88;;;28.10;99.90;;;;;;5053902;28;20345;-70
2023/07/18 11:35:56;;;;;;;2.70;1.80;;;28.40;99.90;;;;;;5060365;28;20206;-69
2023/07/18 11:38:27;;;;;;;5.03;2.15;;;28.70;99.90;;;;;;5055792;28;20181;-66
2023/07/18 11:40:54;;;;;;;2.40;1.90;;;28.90;99.90;;;;;;5052372;28;20201;-66
2023/07/18 11:43:20;;;;;;;2.80;1.88;;;29.00;99.90;;;;;;5057532;28;20239;-65
2023/07/18 11:45:46;;;;;;;2.90;2.00;;;28.90;99.90;;;;;;5058007;28;20173;-66
2023/07/18 11:48:13;;;;;;;2.20;1.60;;;28.70;99.90;;;;;;5059487;28;20201;-66
2023/07/18 11:50:45;;;;;;;2.35;1.88;;;28.60;99.90;;;;;;5044258;28;20186;-66
2023/07/18 11:53:13;;;;;;;1.90;1.70;;;28.50;99.90;;;;;;5051065;28;20205;-66
2023/07/18 11:55:41;;;;;;;3.55;1.83;;;28.50;99.90;;;;;;5053118;28;20324;-65
2023/07/18 11:58:10;;;;;;;2.10;1.80;;;28.50;99.90;;;;;;5052519;28;20188;-66
2023/07/18 12:00:36;;;;;;;2.42;1.80;;;28.60;99.90;;;;;;5052296;28;20184;-66
2023/07/18 12:03:04;;;;;;;2.92;1.70;;;28.70;99.90;;;;;;5055138;28;20268;-65
2023/07/18 12:05:29;;;;;;;2.40;1.50;;;28.80;99.90;;;;;;5059194;28;20174;-67
2023/07/18 12:07:55;;;;;;;2.90;1.88;;;28.80;99.90;;;;;;5054133;28;20200;-66
2023/07/18 12:10:21;;;;;;;4.72;1.63;;;28.90;99.90;;;;;;5053304;28;22697;-66
2023/07/18 12:12:47;;;;;;;2.30;1.70;;;28.90;99.90;;;;;;5050838;28;20204;-66
2023/07/18 12:15:13;;;;;;;4.57;1.98;;;28.90;99.90;;;;;;5047936;28;20220;-66
2023/07/18 12:17:39;;;;;;;3.00;2.10;;;28.90;99.90;;;;;;5055247;28;20177;-67
2023/07/18 12:20:06;;;;;;;3.15;1.83;;;28.80;99.90;;;;;;5050901;28;20190;-67
2023/07/18 12:22:31;;;;;;;2.60;1.75;;;28.80;99.90;;;;;;5051403;28;20495;-65
2023/07/18 12:24:57;;;;;;;2.03;1.60;;;28.90;99.90;;;;;;5054664;28;20212;-66
2023/07/18 12:27:25;;;;;;;2.10;1.58;;;29.00;99.90;;;;;;5054802;28;20231;-67
2023/07/18 12:29:53;;;;;;;2.97;1.85;;;29.20;99.90;;;;;;5053505;28;20172;-65
2023/07/18 12:32:21;;;;;;;2.45;1.90;;;29.40;99.90;;;;;;5055401;28;20429;-65
2023/07/18 12:34:46;;;;;;;2.90;1.80;;;29.50;99.90;;;;;;5054948;28;20227;-65
2023/07/18 12:37:12;;;;;;;3.45;1.90;;;29.70;99.90;;;;;;5053960;28;20200;-66
2023/07/18 12:39:39;;;;;;;2.67;1.60;;;29.90;99.90;;;;;;5052719;28;20196;-66
2023/07/18 12:42:07;;;;;;;2.65;1.80;;;30.00;99.90;;;;;;5048043;28;20201;-66
2023/07/18 12:44:38;;;;;;;2.60;1.98;;;30.20;99.90;;;;;;5066130;28;20188;-67
2023/07/18 12:47:04;;;;;;;3.58;1.50;;;30.20;99.90;;;;;;5055121;28;20165;-67
2023/07/18 12:49:29;;;;;;;2.25;1.80;;;30.30;99.90;;;;;;5054948;28;20228;-68
2023/07/18 12:51:55;;;;;;;1.70;1.45;;;30.20;99.90;;;;;;5062626;28;20211;-67